sensor_id;sensor_type;location;lat;lon;timestamp;P1;durP1;ratioP1;P2;durP2;ratioP2
67554;SDS011;54385;53.516;49.456;2023-06-19T00:00:56;2.75;;;1.08;;
67554;SDS011;54385;53.516;49.456;2023-06-19T00:03:24;5.53;;;1.20;;
67554;SDS011;54385;53.516;49.456;2023-06-19T00:05:52;3.28;;;1.17;;
67554;SDS011;54385;53.516;49.456;2023-06-19T00:08:30;1.80;;;1.05;;
67554;SDS011;54385;53.516;49.456;2023-06-19T00:11:06;3.20;;;1.00;;
67554;SDS011;54385;53.516;49.456;2023-06-19T00:13:44;1.73;;;1.25;;
67554;SDS011;54385;53.516;49.456;2023-06-19T00:16:15;6.28;;;2.50;;
67554;SDS011;54385;53.516;49.456;2023-06-19T00:18:42;6.68;;;1.88;;
67554;SDS011;54385;53.516;49.456;2023-06-19T00:21:12;3.50;;;1.73;;
67554;SDS011;54385;53.516;49.456;2023-06-19T00:23:42;1.80;;;1.20;;
67554;SDS011;54385;53.516;49.456;2023-06-19T00:26:11;3.08;;;1.13;;
67554;SDS011;54385;53.516;49.456;2023-06-19T00:28:40;3.10;;;1.10;;
67554;SDS011;54385;53.516;49.456;2023-06-19T00:31:11;2.45;;;1.35;;
67554;SDS011;54385;53.516;49.456;2023-06-19T00:33:45;4.03;;;1.55;;
67554;SDS011;54385;53.516;49.456;2023-06-19T00:36:15;4.72;;;1.63;;
67554;SDS011;54385;53.516;49.456;2023-06-19T00:38:47;2.50;;;1.40;;
67554;SDS011;54385;53.516;49.456;2023-06-19T00:41:14;3.55;;;1.20;;
67554;SDS011;54385;53.516;49.456;2023-06-19T00:43:43;4.25;;;1.50;;
67554;SDS011;54385;53.516;49.456;2023-06-19T00:46:13;3.25;;;1.20;;
67554;SDS011;54385;53.516;49.456;2023-06-19T00:48:41;1.95;;;0.93;;
67554;SDS011;54385;53.516;49.456;2023-06-19T00:51:11;2.63;;;1.38;;
67554;SDS011;54385;53.516;49.456;2023-06-19T00:53:41;4.65;;;1.45;;
67554;SDS011;54385;53.516;49.456;2023-06-19T00:56:08;5.45;;;1.30;;
67554;SDS011;54385;53.516;49.456;2023-06-19T00:58:36;5.13;;;1.30;;
67554;SDS011;54385;53.516;49.456;2023-06-19T01:01:04;2.75;;;1.10;;
67554;SDS011;54385;53.516;49.456;2023-06-19T01:03:32;1.92;;;1.20;;
67554;SDS011;54385;53.516;49.456;2023-06-19T01:06:00;3.70;;;1.38;;
67554;SDS011;54385;53.516;49.456;2023-06-19T01:11:23;2.40;;;1.20;;
67554;SDS011;54385;53.516;49.456;2023-06-19T01:14:06;6.97;;;1.30;;
67554;SDS011;54385;53.516;49.456;2023-06-19T01:16:42;4.47;;;1.40;;
67554;SDS011;54385;53.516;49.456;2023-06-19T01:19:10;5.18;;;1.98;;
67554;SDS011;54385;53.516;49.456;2023-06-19T01:21:41;6.32;;;1.90;;
67554;SDS011;54385;53.516;49.456;2023-06-19T01:24:15;9.52;;;2.33;;
67554;SDS011;54385;53.516;49.456;2023-06-19T01:26:44;8.02;;;2.67;;
67554;SDS011;54385;53.516;49.456;2023-06-19T01:29:13;7.40;;;3.38;;
67554;SDS011;54385;53.516;49.456;2023-06-19T01:31:45;7.70;;;3.28;;
67554;SDS011;54385;53.516;49.456;2023-06-19T01:34:22;11.00;;;2.63;;
67554;SDS011;54385;53.516;49.456;2023-06-19T01:36:59;6.30;;;2.20;;
67554;SDS011;54385;53.516;49.456;2023-06-19T01:39:30;4.78;;;1.88;;
67554;SDS011;54385;53.516;49.456;2023-06-19T01:41:59;6.22;;;2.03;;
67554;SDS011;54385;53.516;49.456;2023-06-19T01:44:26;2.88;;;1.60;;
67554;SDS011;54385;53.516;49.456;2023-06-19T01:46:54;6.45;;;2.40;;
67554;SDS011;54385;53.516;49.456;2023-06-19T01:49:21;3.00;;;1.67;;
67554;SDS011;54385;53.516;49.456;2023-06-19T01:51:48;5.40;;;1.48;;
67554;SDS011;54385;53.516;49.456;2023-06-19T01:54:16;3.20;;;2.13;;
67554;SDS011;54385;53.516;49.456;2023-06-19T01:57:03;3.50;;;1.88;;
67554;SDS011;54385;53.516;49.456;2023-06-19T01:59:32;3.45;;;1.35;;
67554;SDS011;54385;53.516;49.456;2023-06-19T02:02:02;8.27;;;1.90;;
67554;SDS011;54385;53.516;49.456;2023-06-19T02:04:30;4.05;;;1.60;;
67554;SDS011;54385;53.516;49.456;2023-06-19T02:07:00;7.47;;;1.60;;
67554;SDS011;54385;53.516;49.456;2023-06-19T02:09:34;3.95;;;1.55;;
67554;SDS011;54385;53.516;49.456;2023-06-19T02:12:02;4.03;;;1.52;;
67554;SDS011;54385;53.516;49.456;2023-06-19T02:18:14;4.53;;;1.83;;
67554;SDS011;54385;53.516;49.456;2023-06-19T02:58:11;2.42;;;1.60;;
67554;SDS011;54385;53.516;49.456;2023-06-19T03:17:00;6.72;;;2.25;;
67554;SDS011;54385;53.516;49.456;2023-06-19T03:19:41;10.57;;;3.33;;
67554;SDS011;54385;53.516;49.456;2023-06-19T03:22:40;5.22;;;2.47;;
67554;SDS011;54385;53.516;49.456;2023-06-19T03:49:36;1.63;;;1.17;;
67554;SDS011;54385;53.516;49.456;2023-06-19T03:52:04;2.97;;;1.52;;
67554;SDS011;54385;53.516;49.456;2023-06-19T03:54:38;2.78;;;1.00;;
67554;SDS011;54385;53.516;49.456;2023-06-19T03:57:05;2.60;;;1.02;;
67554;SDS011;54385;53.516;49.456;2023-06-19T03:59:35;3.58;;;1.02;;
67554;SDS011;54385;53.516;49.456;2023-06-19T04:02:02;3.05;;;1.30;;
67554;SDS011;54385;53.516;49.456;2023-06-19T04:04:29;3.42;;;1.90;;
67554;SDS011;54385;53.516;49.456;2023-06-19T04:07:10;4.80;;;1.50;;
67554;SDS011;54385;53.516;49.456;2023-06-19T04:10:14;2.83;;;1.25;;
67554;SDS011;54385;53.516;49.456;2023-06-19T04:12:48;4.75;;;1.60;;
67554;SDS011;54385;53.516;49.456;2023-06-19T04:25:42;5.57;;;1.45;;
67554;SDS011;54385;53.516;49.456;2023-06-19T04:28:15;2.28;;;1.10;;
67554;SDS011;54385;53.516;49.456;2023-06-19T04:37:24;5.25;;;1.55;;
67554;SDS011;54385;53.516;49.456;2023-06-19T04:39:55;9.13;;;1.80;;
67554;SDS011;54385;53.516;49.456;2023-06-19T04:42:46;6.45;;;1.58;;
67554;SDS011;54385;53.516;49.456;2023-06-19T04:46:03;4.68;;;1.95;;
67554;SDS011;54385;53.516;49.456;2023-06-19T04:48:41;4.65;;;1.48;;
67554;SDS011;54385;53.516;49.456;2023-06-19T04:55:01;3.25;;;0.90;;
67554;SDS011;54385;53.516;49.456;2023-06-19T04:57:50;10.15;;;2.22;;
67554;SDS011;54385;53.516;49.456;2023-06-19T05:03:32;7.47;;;1.73;;
67554;SDS011;54385;53.516;49.456;2023-06-19T05:06:39;2.85;;;1.55;;
67554;SDS011;54385;53.516;49.456;2023-06-19T05:09:22;4.13;;;1.40;;
67554;SDS011;54385;53.516;49.456;2023-06-19T05:11:58;3.30;;;1.50;;
67554;SDS011;54385;53.516;49.456;2023-06-19T05:17:50;7.25;;;2.17;;
67554;SDS011;54385;53.516;49.456;2023-06-19T05:20:26;1.75;;;0.82;;
67554;SDS011;54385;53.516;49.456;2023-06-19T05:23:03;2.65;;;0.95;;
67554;SDS011;54385;53.516;49.456;2023-06-19T05:25:32;19.15;;;1.95;;
67554;SDS011;54385;53.516;49.456;2023-06-19T05:31:17;2.10;;;1.20;;
67554;SDS011;54385;53.516;49.456;2023-06-19T05:33:44;4.18;;;1.08;;
67554;SDS011;54385;53.516;49.456;2023-06-19T05:36:28;4.30;;;1.20;;
67554;SDS011;54385;53.516;49.456;2023-06-19T05:39:04;2.03;;;1.35;;
67554;SDS011;54385;53.516;49.456;2023-06-19T05:41:31;2.42;;;1.23;;
67554;SDS011;54385;53.516;49.456;2023-06-19T05:43:59;2.10;;;1.15;;
67554;SDS011;54385;53.516;49.456;2023-06-19T05:46:32;3.28;;;1.13;;
67554;SDS011;54385;53.516;49.456;2023-06-19T05:49:03;10.48;;;1.58;;
67554;SDS011;54385;53.516;49.456;2023-06-19T05:51:34;2.08;;;1.50;;
67554;SDS011;54385;53.516;49.456;2023-06-19T05:54:01;2.13;;;1.20;;
67554;SDS011;54385;53.516;49.456;2023-06-19T05:56:30;2.17;;;1.10;;
67554;SDS011;54385;53.516;49.456;2023-06-19T05:58:59;3.15;;;1.30;;
67554;SDS011;54385;53.516;49.456;2023-06-19T06:01:30;3.85;;;1.45;;
67554;SDS011;54385;53.516;49.456;2023-06-19T06:04:01;4.18;;;1.48;;
67554;SDS011;54385;53.516;49.456;2023-06-19T06:06:31;3.28;;;1.20;;
67554;SDS011;54385;53.516;49.456;2023-06-19T06:09:02;4.57;;;1.25;;
67554;SDS011;54385;53.516;49.456;2023-06-19T06:11:33;5.57;;;1.52;;
67554;SDS011;54385;53.516;49.456;2023-06-19T06:14:00;3.35;;;1.67;;
67554;SDS011;54385;53.516;49.456;2023-06-19T06:16:32;2.30;;;1.30;;
67554;SDS011;54385;53.516;49.456;2023-06-19T06:19:01;3.60;;;1.02;;
67554;SDS011;54385;53.516;49.456;2023-06-19T06:21:31;3.40;;;1.38;;
67554;SDS011;54385;53.516;49.456;2023-06-19T06:24:01;3.03;;;1.15;;
67554;SDS011;54385;53.516;49.456;2023-06-19T06:26:33;4.35;;;1.50;;
67554;SDS011;54385;53.516;49.456;2023-06-19T06:29:25;3.72;;;1.30;;
67554;SDS011;54385;53.516;49.456;2023-06-19T06:32:02;2.85;;;1.35;;
67554;SDS011;54385;53.516;49.456;2023-06-19T06:34:42;3.80;;;1.60;;
67554;SDS011;54385;53.516;49.456;2023-06-19T06:40:09;3.50;;;1.27;;
67554;SDS011;54385;53.516;49.456;2023-06-19T06:42:48;3.17;;;1.27;;
67554;SDS011;54385;53.516;49.456;2023-06-19T06:45:31;4.25;;;1.77;;
67554;SDS011;54385;53.516;49.456;2023-06-19T06:50:46;4.72;;;1.73;;
67554;SDS011;54385;53.516;49.456;2023-06-19T06:53:17;2.35;;;1.50;;
67554;SDS011;54385;53.516;49.456;2023-06-19T06:55:45;4.18;;;1.27;;
67554;SDS011;54385;53.516;49.456;2023-06-19T06:58:21;2.88;;;1.30;;
67554;SDS011;54385;53.516;49.456;2023-06-19T07:00:52;6.35;;;1.70;;
67554;SDS011;54385;53.516;49.456;2023-06-19T07:03:22;2.22;;;1.42;;
67554;SDS011;54385;53.516;49.456;2023-06-19T07:05:49;2.45;;;1.60;;
67554;SDS011;54385;53.516;49.456;2023-06-19T07:08:23;4.35;;;1.50;;
67554;SDS011;54385;53.516;49.456;2023-06-19T07:14:37;6.57;;;2.20;;
67554;SDS011;54385;53.516;49.456;2023-06-19T07:17:08;3.88;;;1.73;;
67554;SDS011;54385;53.516;49.456;2023-06-19T07:19:44;3.03;;;1.50;;
67554;SDS011;54385;53.516;49.456;2023-06-19T07:22:30;4.55;;;1.75;;
67554;SDS011;54385;53.516;49.456;2023-06-19T07:24:57;4.25;;;1.60;;
67554;SDS011;54385;53.516;49.456;2023-06-19T07:27:55;2.78;;;1.58;;
67554;SDS011;54385;53.516;49.456;2023-06-19T07:33:17;17.65;;;2.17;;
67554;SDS011;54385;53.516;49.456;2023-06-19T07:35:43;2.95;;;1.30;;
67554;SDS011;54385;53.516;49.456;2023-06-19T07:38:11;5.50;;;1.67;;
67554;SDS011;54385;53.516;49.456;2023-06-19T07:40:44;3.33;;;1.77;;
67554;SDS011;54385;53.516;49.456;2023-06-19T07:43:12;2.63;;;1.23;;
67554;SDS011;54385;53.516;49.456;2023-06-19T07:45:41;4.22;;;1.70;;
67554;SDS011;54385;53.516;49.456;2023-06-19T07:48:12;2.42;;;1.50;;
67554;SDS011;54385;53.516;49.456;2023-06-19T07:51:07;3.90;;;1.50;;
67554;SDS011;54385;53.516;49.456;2023-06-19T07:53:37;2.17;;;1.55;;
67554;SDS011;54385;53.516;49.456;2023-06-19T07:56:06;3.75;;;1.52;;
67554;SDS011;54385;53.516;49.456;2023-06-19T07:58:47;4.60;;;1.60;;
67554;SDS011;54385;53.516;49.456;2023-06-19T08:01:53;2.08;;;1.30;;
67554;SDS011;54385;53.516;49.456;2023-06-19T08:04:21;2.28;;;1.60;;
67554;SDS011;54385;53.516;49.456;2023-06-19T08:06:51;2.05;;;1.50;;
67554;SDS011;54385;53.516;49.456;2023-06-19T08:09:20;3.17;;;1.70;;
67554;SDS011;54385;53.516;49.456;2023-06-19T08:12:01;2.17;;;1.40;;
67554;SDS011;54385;53.516;49.456;2023-06-19T08:14:31;2.92;;;1.45;;
67554;SDS011;54385;53.516;49.456;2023-06-19T08:17:16;2.78;;;1.35;;
67554;SDS011;54385;53.516;49.456;2023-06-19T08:19:46;3.65;;;1.63;;
67554;SDS011;54385;53.516;49.456;2023-06-19T08:22:40;2.35;;;1.50;;
67554;SDS011;54385;53.516;49.456;2023-06-19T08:25:10;3.40;;;1.33;;
67554;SDS011;54385;53.516;49.456;2023-06-19T08:30:46;2.92;;;1.52;;
67554;SDS011;54385;53.516;49.456;2023-06-19T08:33:22;3.55;;;1.40;;
67554;SDS011;54385;53.516;49.456;2023-06-19T08:39:18;2.08;;;1.40;;
67554;SDS011;54385;53.516;49.456;2023-06-19T08:42:01;2.47;;;1.40;;
67554;SDS011;54385;53.516;49.456;2023-06-19T08:44:28;2.38;;;1.30;;
67554;SDS011;54385;53.516;49.456;2023-06-19T08:46:58;2.53;;;1.30;;
67554;SDS011;54385;53.516;49.456;2023-06-19T08:49:36;2.42;;;1.40;;
67554;SDS011;54385;53.516;49.456;2023-06-19T08:52:04;2.50;;;1.33;;
67554;SDS011;54385;53.516;49.456;2023-06-19T08:54:34;2.63;;;1.60;;
67554;SDS011;54385;53.516;49.456;2023-06-19T08:57:10;2.58;;;1.52;;
67554;SDS011;54385;53.516;49.456;2023-06-19T08:59:50;2.95;;;1.35;;
67554;SDS011;54385;53.516;49.456;2023-06-19T09:02:42;3.15;;;1.70;;
67554;SDS011;54385;53.516;49.456;2023-06-19T09:05:12;3.15;;;1.40;;
67554;SDS011;54385;53.516;49.456;2023-06-19T09:07:41;3.85;;;1.45;;
67554;SDS011;54385;53.516;49.456;2023-06-19T09:10:15;2.72;;;1.50;;
67554;SDS011;54385;53.516;49.456;2023-06-19T09:12:57;2.00;;;1.45;;
67554;SDS011;54385;53.516;49.456;2023-06-19T09:15:29;3.53;;;1.40;;
67554;SDS011;54385;53.516;49.456;2023-06-19T09:20:37;1.85;;;1.40;;
67554;SDS011;54385;53.516;49.456;2023-06-19T09:23:19;2.33;;;1.30;;
67554;SDS011;54385;53.516;49.456;2023-06-19T09:25:50;1.88;;;1.20;;
67554;SDS011;54385;53.516;49.456;2023-06-19T09:28:25;2.47;;;1.55;;
67554;SDS011;54385;53.516;49.456;2023-06-19T09:31:03;2.60;;;1.40;;
67554;SDS011;54385;53.516;49.456;2023-06-19T09:33:32;1.67;;;1.27;;
67554;SDS011;54385;53.516;49.456;2023-06-19T09:36:01;1.88;;;1.27;;
67554;SDS011;54385;53.516;49.456;2023-06-19T09:38:30;1.92;;;1.45;;
67554;SDS011;54385;53.516;49.456;2023-06-19T09:41:07;2.60;;;1.55;;
67554;SDS011;54385;53.516;49.456;2023-06-19T09:46:09;3.25;;;1.30;;
67554;SDS011;54385;53.516;49.456;2023-06-19T09:48:42;2.10;;;1.60;;
67554;SDS011;54385;53.516;49.456;2023-06-19T09:51:21;1.83;;;1.38;;
67554;SDS011;54385;53.516;49.456;2023-06-19T09:53:54;1.98;;;1.50;;
67554;SDS011;54385;53.516;49.456;2023-06-19T09:56:24;2.75;;;1.50;;
67554;SDS011;54385;53.516;49.456;2023-06-19T09:58:57;2.55;;;1.42;;
67554;SDS011;54385;53.516;49.456;2023-06-19T10:04:07;1.98;;;1.60;;
67554;SDS011;54385;53.516;49.456;2023-06-19T10:06:46;3.55;;;1.63;;
67554;SDS011;54385;53.516;49.456;2023-06-19T10:09:15;1.95;;;1.55;;
67554;SDS011;54385;53.516;49.456;2023-06-19T10:11:46;2.08;;;1.80;;
67554;SDS011;54385;53.516;49.456;2023-06-19T10:14:22;1.90;;;1.33;;
67554;SDS011;54385;53.516;49.456;2023-06-19T10:16:50;2.42;;;1.70;;
67554;SDS011;54385;53.516;49.456;2023-06-19T10:19:20;3.03;;;1.88;;
67554;SDS011;54385;53.516;49.456;2023-06-19T10:21:49;2.05;;;1.60;;
67554;SDS011;54385;53.516;49.456;2023-06-19T10:24:22;2.17;;;1.63;;
67554;SDS011;54385;53.516;49.456;2023-06-19T10:27:01;3.90;;;1.50;;
67554;SDS011;54385;53.516;49.456;2023-06-19T10:29:40;2.35;;;1.30;;
67554;SDS011;54385;53.516;49.456;2023-06-19T10:32:15;1.98;;;1.40;;
67554;SDS011;54385;53.516;49.456;2023-06-19T10:34:48;2.00;;;1.50;;
67554;SDS011;54385;53.516;49.456;2023-06-19T10:37:33;2.10;;;1.60;;
67554;SDS011;54385;53.516;49.456;2023-06-19T10:40:08;2.65;;;2.17;;
67554;SDS011;54385;53.516;49.456;2023-06-19T10:43:19;6.63;;;2.47;;
67554;SDS011;54385;53.516;49.456;2023-06-19T10:45:50;6.57;;;2.35;;
67554;SDS011;54385;53.516;49.456;2023-06-19T10:48:22;2.15;;;1.73;;
67554;SDS011;54385;53.516;49.456;2023-06-19T10:50:50;4.38;;;2.20;;
67554;SDS011;54385;53.516;49.456;2023-06-19T10:53:41;3.50;;;1.83;;
67554;SDS011;54385;53.516;49.456;2023-06-19T10:56:12;5.10;;;2.22;;
67554;SDS011;54385;53.516;49.456;2023-06-19T11:01:50;4.03;;;1.85;;
67554;SDS011;54385;53.516;49.456;2023-06-19T11:04:38;3.60;;;2.00;;
67554;SDS011;54385;53.516;49.456;2023-06-19T11:07:15;3.72;;;1.92;;
67554;SDS011;54385;53.516;49.456;2023-06-19T11:09:44;2.60;;;2.05;;
67554;SDS011;54385;53.516;49.456;2023-06-19T11:12:12;3.75;;;2.40;;
67554;SDS011;54385;53.516;49.456;2023-06-19T11:14:51;4.60;;;1.80;;
67554;SDS011;54385;53.516;49.456;2023-06-19T11:17:22;4.38;;;2.30;;
67554;SDS011;54385;53.516;49.456;2023-06-19T11:19:50;5.15;;;2.20;;
67554;SDS011;54385;53.516;49.456;2023-06-19T11:22:35;3.95;;;2.05;;
67554;SDS011;54385;53.516;49.456;2023-06-19T11:25:04;4.85;;;2.67;;
67554;SDS011;54385;53.516;49.456;2023-06-19T11:27:37;4.13;;;2.30;;
67554;SDS011;54385;53.516;49.456;2023-06-19T11:30:08;4.53;;;2.25;;
67554;SDS011;54385;53.516;49.456;2023-06-19T11:32:36;3.20;;;1.92;;
67554;SDS011;54385;53.516;49.456;2023-06-19T11:35:10;3.80;;;2.00;;
67554;SDS011;54385;53.516;49.456;2023-06-19T11:40:27;3.85;;;2.67;;
67554;SDS011;54385;53.516;49.456;2023-06-19T11:42:55;3.80;;;2.30;;
67554;SDS011;54385;53.516;49.456;2023-06-19T11:45:32;4.70;;;2.22;;
67554;SDS011;54385;53.516;49.456;2023-06-19T11:48:26;3.92;;;2.60;;
67554;SDS011;54385;53.516;49.456;2023-06-19T11:51:39;3.55;;;2.42;;
67554;SDS011;54385;53.516;49.456;2023-06-19T11:54:12;4.18;;;2.60;;
67554;SDS011;54385;53.516;49.456;2023-06-19T11:56:48;4.28;;;2.22;;
67554;SDS011;54385;53.516;49.456;2023-06-19T11:59:38;4.28;;;2.72;;
67554;SDS011;54385;53.516;49.456;2023-06-19T12:02:12;3.08;;;2.53;;
67554;SDS011;54385;53.516;49.456;2023-06-19T12:05:02;4.63;;;2.60;;
67554;SDS011;54385;53.516;49.456;2023-06-19T12:07:40;3.28;;;2.25;;
67554;SDS011;54385;53.516;49.456;2023-06-19T12:10:47;3.70;;;2.60;;
67554;SDS011;54385;53.516;49.456;2023-06-19T12:13:36;3.58;;;2.78;;
67554;SDS011;54385;53.516;49.456;2023-06-19T12:16:51;3.63;;;2.75;;
67554;SDS011;54385;53.516;49.456;2023-06-19T12:19:50;5.40;;;2.83;;
67554;SDS011;54385;53.516;49.456;2023-06-19T12:26:53;5.03;;;3.17;;
67554;SDS011;54385;53.516;49.456;2023-06-19T12:29:58;4.57;;;2.58;;
67554;SDS011;54385;53.516;49.456;2023-06-19T12:40:01;3.90;;;2.63;;
67554;SDS011;54385;53.516;49.456;2023-06-19T12:42:35;4.40;;;2.78;;
67554;SDS011;54385;53.516;49.456;2023-06-19T12:45:36;3.30;;;2.47;;
67554;SDS011;54385;53.516;49.456;2023-06-19T12:52:09;4.25;;;2.50;;
67554;SDS011;54385;53.516;49.456;2023-06-19T12:54:41;3.00;;;2.35;;
67554;SDS011;54385;53.516;49.456;2023-06-19T12:57:29;3.45;;;2.50;;
67554;SDS011;54385;53.516;49.456;2023-06-19T13:00:15;4.90;;;2.72;;
67554;SDS011;54385;53.516;49.456;2023-06-19T13:07:07;2.83;;;2.33;;
67554;SDS011;54385;53.516;49.456;2023-06-19T13:10:31;2.92;;;2.35;;
67554;SDS011;54385;53.516;49.456;2023-06-19T13:13:58;3.72;;;2.50;;
67554;SDS011;54385;53.516;49.456;2023-06-19T13:17:05;2.80;;;2.28;;
67554;SDS011;54385;53.516;49.456;2023-06-19T13:28:09;2.70;;;2.25;;
67554;SDS011;54385;53.516;49.456;2023-06-19T13:34:51;3.10;;;2.22;;
67554;SDS011;54385;53.516;49.456;2023-06-19T13:38:24;3.08;;;2.22;;
67554;SDS011;54385;53.516;49.456;2023-06-19T13:41:42;3.78;;;2.20;;
67554;SDS011;54385;53.516;49.456;2023-06-19T13:44:09;3.13;;;2.28;;
67554;SDS011;54385;53.516;49.456;2023-06-19T13:47:06;4.03;;;2.15;;
67554;SDS011;54385;53.516;49.456;2023-06-19T13:49:58;2.72;;;2.35;;
67554;SDS011;54385;53.516;49.456;2023-06-19T13:52:28;3.40;;;2.30;;
67554;SDS011;54385;53.516;49.456;2023-06-19T13:55:30;3.00;;;2.13;;
67554;SDS011;54385;53.516;49.456;2023-06-19T13:58:27;2.72;;;2.03;;
67554;SDS011;54385;53.516;49.456;2023-06-19T14:02:26;4.43;;;2.10;;
67554;SDS011;54385;53.516;49.456;2023-06-19T14:05:01;4.03;;;2.60;;
67554;SDS011;54385;53.516;49.456;2023-06-19T14:11:56;2.50;;;2.03;;
67554;SDS011;54385;53.516;49.456;2023-06-19T14:15:12;2.78;;;2.28;;
67554;SDS011;54385;53.516;49.456;2023-06-19T14:18:14;2.85;;;2.05;;
67554;SDS011;54385;53.516;49.456;2023-06-19T14:24:53;2.65;;;2.00;;
67554;SDS011;54385;53.516;49.456;2023-06-19T14:27:28;2.50;;;1.95;;
67554;SDS011;54385;53.516;49.456;2023-06-19T14:30:23;2.72;;;1.92;;
67554;SDS011;54385;53.516;49.456;2023-06-19T14:33:09;2.60;;;2.08;;
67554;SDS011;54385;53.516;49.456;2023-06-19T14:36:12;3.08;;;2.13;;
67554;SDS011;54385;53.516;49.456;2023-06-19T14:38:55;2.50;;;1.83;;
67554;SDS011;54385;53.516;49.456;2023-06-19T14:41:59;2.67;;;2.15;;
67554;SDS011;54385;53.516;49.456;2023-06-19T14:44:33;3.22;;;2.20;;
67554;SDS011;54385;53.516;49.456;2023-06-19T14:47:00;3.03;;;2.22;;
67554;SDS011;54385;53.516;49.456;2023-06-19T14:50:22;2.55;;;1.92;;
67554;SDS011;54385;53.516;49.456;2023-06-19T14:53:04;2.75;;;1.95;;
67554;SDS011;54385;53.516;49.456;2023-06-19T14:56:33;2.45;;;1.90;;
67554;SDS011;54385;53.516;49.456;2023-06-19T15:02:10;3.30;;;2.20;;
67554;SDS011;54385;53.516;49.456;2023-06-19T15:05:40;2.83;;;1.73;;
67554;SDS011;54385;53.516;49.456;2023-06-19T15:12:36;2.80;;;1.98;;
67554;SDS011;54385;53.516;49.456;2023-06-19T15:15:06;3.35;;;2.08;;
67554;SDS011;54385;53.516;49.456;2023-06-19T15:17:39;2.03;;;1.75;;
67554;SDS011;54385;53.516;49.456;2023-06-19T15:20:29;2.42;;;1.80;;
67554;SDS011;54385;53.516;49.456;2023-06-19T15:23:26;2.90;;;2.13;;
67554;SDS011;54385;53.516;49.456;2023-06-19T15:28:24;2.97;;;1.90;;
67554;SDS011;54385;53.516;49.456;2023-06-19T15:34:20;4.05;;;1.98;;
67554;SDS011;54385;53.516;49.456;2023-06-19T15:37:15;2.15;;;1.80;;
67554;SDS011;54385;53.516;49.456;2023-06-19T15:43:31;2.40;;;1.70;;
67554;SDS011;54385;53.516;49.456;2023-06-19T15:46:00;2.30;;;1.88;;
67554;SDS011;54385;53.516;49.456;2023-06-19T15:48:37;3.00;;;2.15;;
67554;SDS011;54385;53.516;49.456;2023-06-19T15:51:18;2.72;;;1.70;;
67554;SDS011;54385;53.516;49.456;2023-06-19T15:54:05;3.63;;;1.85;;
67554;SDS011;54385;53.516;49.456;2023-06-19T15:57:52;2.95;;;2.17;;
67554;SDS011;54385;53.516;49.456;2023-06-19T16:00:29;3.42;;;2.20;;
67554;SDS011;54385;53.516;49.456;2023-06-19T16:03:24;2.88;;;2.10;;
67554;SDS011;54385;53.516;49.456;2023-06-19T16:06:28;2.78;;;2.08;;
67554;SDS011;54385;53.516;49.456;2023-06-19T16:09:28;3.17;;;1.85;;
67554;SDS011;54385;53.516;49.456;2023-06-19T16:12:21;2.40;;;2.05;;
67554;SDS011;54385;53.516;49.456;2023-06-19T16:15:03;2.85;;;2.13;;
67554;SDS011;54385;53.516;49.456;2023-06-19T16:18:12;2.80;;;2.00;;
67554;SDS011;54385;53.516;49.456;2023-06-19T16:24:34;2.17;;;1.90;;
67554;SDS011;54385;53.516;49.456;2023-06-19T16:27:42;3.88;;;2.25;;
67554;SDS011;54385;53.516;49.456;2023-06-19T16:30:16;2.63;;;2.13;;
67554;SDS011;54385;53.516;49.456;2023-06-19T16:32:47;3.20;;;2.25;;
67554;SDS011;54385;53.516;49.456;2023-06-19T16:35:18;3.00;;;2.08;;
67554;SDS011;54385;53.516;49.456;2023-06-19T16:38:15;2.50;;;2.22;;
67554;SDS011;54385;53.516;49.456;2023-06-19T16:41:45;2.67;;;2.40;;
67554;SDS011;54385;53.516;49.456;2023-06-19T16:44:40;3.22;;;2.08;;
67554;SDS011;54385;53.516;49.456;2023-06-19T16:47:25;3.50;;;2.20;;
67554;SDS011;54385;53.516;49.456;2023-06-19T16:49:52;3.15;;;2.17;;
67554;SDS011;54385;53.516;49.456;2023-06-19T16:52:30;2.75;;;2.00;;
67554;SDS011;54385;53.516;49.456;2023-06-19T16:55:00;3.05;;;2.40;;
67554;SDS011;54385;53.516;49.456;2023-06-19T16:57:35;2.78;;;1.95;;
67554;SDS011;54385;53.516;49.456;2023-06-19T17:00:19;3.15;;;2.25;;
67554;SDS011;54385;53.516;49.456;2023-06-19T17:02:51;3.05;;;2.22;;
67554;SDS011;54385;53.516;49.456;2023-06-19T17:05:44;3.00;;;2.13;;
67554;SDS011;54385;53.516;49.456;2023-06-19T17:08:21;2.97;;;2.10;;
67554;SDS011;54385;53.516;49.456;2023-06-19T17:11:26;3.30;;;2.10;;
67554;SDS011;54385;53.516;49.456;2023-06-19T17:16:52;3.35;;;2.15;;
67554;SDS011;54385;53.516;49.456;2023-06-19T17:20:11;3.33;;;2.28;;
67554;SDS011;54385;53.516;49.456;2023-06-19T17:22:49;2.70;;;2.15;;
67554;SDS011;54385;53.516;49.456;2023-06-19T17:25:32;4.15;;;2.45;;
67554;SDS011;54385;53.516;49.456;2023-06-19T17:28:08;2.65;;;2.00;;
67554;SDS011;54385;53.516;49.456;2023-06-19T17:30:44;3.25;;;2.40;;
67554;SDS011;54385;53.516;49.456;2023-06-19T17:33:46;3.20;;;2.20;;
67554;SDS011;54385;53.516;49.456;2023-06-19T17:36:46;4.57;;;2.33;;
67554;SDS011;54385;53.516;49.456;2023-06-19T17:39:35;3.03;;;2.25;;
67554;SDS011;54385;53.516;49.456;2023-06-19T17:42:44;3.05;;;2.10;;
67554;SDS011;54385;53.516;49.456;2023-06-19T17:45:13;3.55;;;2.40;;
67554;SDS011;54385;53.516;49.456;2023-06-19T17:48:03;3.15;;;2.00;;
67554;SDS011;54385;53.516;49.456;2023-06-19T17:54:18;3.40;;;2.10;;
67554;SDS011;54385;53.516;49.456;2023-06-19T18:01:04;2.97;;;2.20;;
67554;SDS011;54385;53.516;49.456;2023-06-19T18:04:00;2.75;;;2.03;;
67554;SDS011;54385;53.516;49.456;2023-06-19T18:06:51;4.05;;;2.38;;
67554;SDS011;54385;53.516;49.456;2023-06-19T18:09:45;2.50;;;1.83;;
67554;SDS011;54385;53.516;49.456;2023-06-19T18:12:20;3.45;;;2.40;;
67554;SDS011;54385;53.516;49.456;2023-06-19T18:14:59;2.67;;;2.10;;
67554;SDS011;54385;53.516;49.456;2023-06-19T18:17:35;4.20;;;2.15;;
67554;SDS011;54385;53.516;49.456;2023-06-19T18:20:22;4.05;;;2.35;;
67554;SDS011;54385;53.516;49.456;2023-06-19T18:23:18;2.72;;;2.20;;
67554;SDS011;54385;53.516;49.456;2023-06-19T18:25:52;3.42;;;2.42;;
67554;SDS011;54385;53.516;49.456;2023-06-19T18:28:33;3.35;;;2.28;;
67554;SDS011;54385;53.516;49.456;2023-06-19T18:31:19;3.78;;;2.45;;
67554;SDS011;54385;53.516;49.456;2023-06-19T18:33:46;3.35;;;2.13;;
67554;SDS011;54385;53.516;49.456;2023-06-19T18:36:20;4.90;;;2.38;;
67554;SDS011;54385;53.516;49.456;2023-06-19T18:38:47;4.63;;;2.42;;
67554;SDS011;54385;53.516;49.456;2023-06-19T18:41:17;3.10;;;2.22;;
67554;SDS011;54385;53.516;49.456;2023-06-19T18:43:55;3.38;;;2.42;;
67554;SDS011;54385;53.516;49.456;2023-06-19T18:46:43;4.35;;;2.35;;
67554;SDS011;54385;53.516;49.456;2023-06-19T18:49:15;4.15;;;2.60;;
67554;SDS011;54385;53.516;49.456;2023-06-19T18:51:45;2.83;;;2.10;;
67554;SDS011;54385;53.516;49.456;2023-06-19T18:54:46;4.18;;;2.42;;
67554;SDS011;54385;53.516;49.456;2023-06-19T19:00:20;3.63;;;2.35;;
67554;SDS011;54385;53.516;49.456;2023-06-19T19:02:47;3.25;;;2.10;;
67554;SDS011;54385;53.516;49.456;2023-06-19T19:05:16;3.13;;;2.03;;
67554;SDS011;54385;53.516;49.456;2023-06-19T19:07:45;2.83;;;1.98;;
67554;SDS011;54385;53.516;49.456;2023-06-19T19:10:12;2.95;;;2.00;;
67554;SDS011;54385;53.516;49.456;2023-06-19T19:12:39;4.63;;;2.30;;
67554;SDS011;54385;53.516;49.456;2023-06-19T19:15:06;3.33;;;2.38;;
67554;SDS011;54385;53.516;49.456;2023-06-19T19:17:33;3.03;;;2.25;;
67554;SDS011;54385;53.516;49.456;2023-06-19T19:20:03;3.22;;;2.20;;
67554;SDS011;54385;53.516;49.456;2023-06-19T19:22:33;2.95;;;2.28;;
67554;SDS011;54385;53.516;49.456;2023-06-19T19:25:29;3.20;;;2.20;;